Hume, California
Current Conditions -  °F | °C
As of 5:15 AM on Thursday 18 Dec 2014 (Local Time) from KVIS Reporting Station
Few Clouds Few Clouds  
Wind Chill: 45°   Ceiling: Unl
Heat Index: 45°   Visibility: 5mi
Dew Point: 37°   Wind: 0mph
Humidity: 76%   Direction: NA
Pressure: 30.14"   Gusts: NA
Location:  36.78°N, 118.91°W
Report Text: KVIS 181315Z AUTO 00000KT 5SM FEW085 07/03 A3014 RMK AO1
Loading
Personal Weather Stations






























Interactive Weather Map New forecast layout! Learn more

10-Day Weather Forecast

Advertisements
Track Severe Weather on mobile